Main page
METAR-TAF:

METAR-TAF

Airports :

Brighton City Airport (Shoreham Airport)

Brighton, England

latitude: 50-50N, longitude: 000-17W, elevation: 2 m

Current weather observation

The report was made 1 hour and 36 minutes ago, at 18:50 UTC
Wind 18 kt from the North/Northeast
Temperature 8°C
Humidity 57%
Pressure 1029 hPa
Visibility 10 km or more
Few clouds at a height of 4500 ft

METAR: EGKA 281850Z 02018KT 9999 FEW045 08/M00 Q1029

Time: 20:26 (20:26 UTC)

Forecast

The report was made 6 hours and 22 minutes ago, at 14:04 UTC
Forecast valid from 28 at 15 UTC to 28 at 19 UTC
Wind 20 kt from the North/Northeast with gusts up to 35 kt
Visibility 10 km or more
no clouds below 1500 m and no cumulonimbus
Becoming
from 28 at 15 UTC to 28 at 17 UTC
Broken clouds at a height of 3500 ft

TAF: EGKA 281404Z 2815/2819 03020G35KT CAVOK BECMG 2815/2817 BKN035

Weather observations and forecasts of more than 4000 airports (METAR and TAF reports).

The available stations are represented by yellow and red dots on the map.

Hover mouse over dot to see the name of the station.

Then click to see weather observations and forecasts.

To change the map : click on the green buttons with a black cross to zoom in, on the green button with a dash to zoom out, or on the green arrows for adjacent maps.


METAR-TAF: